Time;durP1;ratioP1;P1;durP2;ratioP2;P2;SDS_P1;SDS_P2;PMS_P1;PMS_P2;Temp;Humidity;BMP_temperature;BMP_pressure;BME280_temperature;BME280_humidity;BME280_pressure;Samples;Min_cycle;Max_cycle;Signal;HPM_P1;HPM_P2
2023/07/22 00:00:33;;;;;;;2.63;0.70;;;;;;;;;;5132991;27;20078;-65
2023/07/22 00:03:00;;;;;;;2.45;0.95;;;;;;;;;;5137569;27;20054;-65
2023/07/22 00:05:28;;;;;;;1.60;0.50;;;;;;;;;;5143907;27;20043;-65
2023/07/22 00:07:55;;;;;;;5.28;0.70;;;;;;;;;;5125430;27;20527;-65
2023/07/22 00:10:22;;;;;;;1.25;0.70;;;;;;;;;;5140888;27;20042;-65
2023/07/22 00:12:49;;;;;;;1.38;0.75;;;;;;;;;;5140159;27;20389;-65
2023/07/22 00:15:20;;;;;;;1.10;0.70;;;;;;;;;;5129111;27;20058;-65
2023/07/22 00:17:48;;;;;;;1.13;0.75;;;;;;;;;;5148454;27;20443;-65
2023/07/22 00:20:16;;;;;;;3.00;0.82;;;;;;;;;;5147257;27;20049;-65
2023/07/22 00:22:43;;;;;;;2.45;0.75;;;;;;;;;;5147386;27;20111;-65
2023/07/22 00:25:11;;;;;;;1.40;0.95;;;;;;;;;;5148621;27;20510;-65
2023/07/22 00:27:39;;;;;;;2.45;0.63;;;;;;;;;;5146607;27;20051;-65
2023/07/22 00:30:07;;;;;;;5.07;0.65;;;;;;;;;;5149166;27;20054;-66
2023/07/22 00:32:36;;;;;;;1.88;0.70;;;;;;;;;;5148685;27;20050;-65
2023/07/22 00:35:05;;;;;;;2.05;0.60;;;;;;;;;;5145976;27;20046;-66
2023/07/22 00:37:32;;;;;;;1.88;0.82;;;;;;;;;;5142489;27;20047;-65
2023/07/22 00:39:59;;;;;;;1.13;0.70;;;;;;;;;;5139782;27;20050;-65
2023/07/22 00:42:26;;;;;;;1.52;0.80;;;;;;;;;;5148762;27;20042;-65
2023/07/22 00:44:54;;;;;;;1.77;0.70;;;;;;;;;;5150833;27;20051;-65
2023/07/22 00:47:21;;;;;;;1.20;0.60;;;;;;;;;;5146506;27;20051;-66
2023/07/22 00:49:50;;;;;;;0.90;0.50;;;;;;;;;;5141913;27;20047;-65
2023/07/22 00:52:18;;;;;;;3.67;0.88;;;;;;;;;;5141086;27;20047;-66
2023/07/22 00:54:45;;;;;;;1.17;0.60;;;;;;;;;;5142709;27;20059;-65
2023/07/22 00:57:13;;;;;;;2.17;0.93;;;;;;;;;;5144237;27;20058;-65
2023/07/22 00:59:41;;;;;;;0.90;0.60;;;;;;;;;;5138774;27;20054;-65
2023/07/22 01:04:45;;;;;;;2.05;0.70;;;;;;;;;;5561564;22;20052;-70
2023/07/22 01:07:14;;;;;;;1.10;0.63;;;;;;;;;;5084987;28;20163;-70
2023/07/22 01:09:42;;;;;;;1.45;0.70;;;;;;;;;;5076728;28;20348;-70
2023/07/22 01:12:10;;;;;;;1.10;0.65;;;;;;;;;;5089978;28;20086;-70
2023/07/22 01:14:38;;;;;;;2.45;0.70;;;;;;;;;;5088508;28;20107;-70
2023/07/22 01:17:06;;;;;;;1.88;0.73;;;;;;;;;;5082082;28;20048;-70
2023/07/22 01:19:34;;;;;;;1.60;0.85;;;;;;;;;;5086137;28;20131;-70
2023/07/22 01:22:02;;;;;;;1.85;0.85;;;;;;;;;;5075323;28;20524;-70
2023/07/22 01:24:30;;;;;;;2.92;1.00;;;;;;;;;;5081344;28;20043;-70
2023/07/22 01:27:00;;;;;;;3.15;1.00;;;;;;;;;;5075034;28;20066;-70
2023/07/22 01:29:28;;;;;;;2.53;0.93;;;;;;;;;;5088706;28;20070;-70
2023/07/22 01:31:56;;;;;;;4.18;0.98;;;;;;;;;;5084435;28;20090;-70
2023/07/22 01:34:24;;;;;;;3.85;1.23;;;;;;;;;;5082871;28;20048;-70
2023/07/22 01:36:51;;;;;;;4.88;0.90;;;;;;;;;;5086953;28;20117;-70
2023/07/22 01:39:19;;;;;;;3.25;1.05;;;;;;;;;;5088084;28;20493;-70
2023/07/22 01:41:48;;;;;;;7.15;0.95;;;;;;;;;;5088070;28;20504;-70
2023/07/22 01:44:15;;;;;;;2.28;0.90;;;;;;;;;;5086371;28;20537;-70
2023/07/22 01:46:42;;;;;;;1.20;0.70;;;;;;;;;;5088637;28;20044;-70
2023/07/22 01:49:12;;;;;;;4.35;0.90;;;;;;;;;;5085730;28;20052;-70
2023/07/22 01:51:40;;;;;;;4.85;1.08;;;;;;;;;;5082864;28;20097;-70
2023/07/22 01:54:08;;;;;;;3.13;1.10;;;;;;;;;;5086779;28;20758;-70
2023/07/22 01:56:36;;;;;;;2.03;0.90;;;;;;;;;;5088078;28;20577;-70
2023/07/22 01:59:05;;;;;;;2.63;1.10;;;;;;;;;;5087019;28;20146;-69
2023/07/22 02:01:32;;;;;;;2.47;1.20;;;;;;;;;;5088048;28;20411;-70
2023/07/22 02:03:59;;;;;;;4.05;0.80;;;;;;;;;;5079426;28;20406;-70
2023/07/22 02:06:28;;;;;;;2.83;1.00;;;;;;;;;;5067206;28;20040;-70
2023/07/22 02:08:56;;;;;;;1.73;0.88;;;;;;;;;;5067745;28;20044;-70
2023/07/22 02:11:24;;;;;;;4.57;0.70;;;;;;;;;;5067653;28;20044;-70
2023/07/22 02:13:51;;;;;;;4.20;0.98;;;;;;;;;;5065055;28;20785;-70
2023/07/22 02:16:20;;;;;;;2.25;1.00;;;;;;;;;;5067759;28;20403;-70
2023/07/22 02:18:47;;;;;;;3.60;0.88;;;;;;;;;;5058717;28;20056;-70
2023/07/22 02:21:14;;;;;;;1.70;0.90;;;;;;;;;;5041494;28;20048;-70
2023/07/22 02:23:42;;;;;;;1.90;1.00;;;;;;;;;;5066898;28;20052;-70
2023/07/22 02:26:09;;;;;;;5.45;1.15;;;;;;;;;;5050788;28;20449;-70
2023/07/22 02:28:37;;;;;;;2.50;1.02;;;;;;;;;;5066299;28;20060;-70
2023/07/22 02:31:06;;;;;;;2.10;0.82;;;;;;;;;;5069511;28;20048;-70
2023/07/22 02:33:35;;;;;;;2.70;1.20;;;;;;;;;;5063621;28;20045;-70
2023/07/22 02:36:03;;;;;;;2.72;1.10;;;;;;;;;;5065286;28;20066;-70
2023/07/22 02:38:30;;;;;;;1.88;0.95;;;;;;;;;;5065096;28;20430;-70
2023/07/22 02:41:03;;;;;;;2.10;0.93;;;;;;;;;;5067375;28;20059;-70
2023/07/22 02:43:30;;;;;;;2.13;1.10;;;;;;;;;;5064717;28;20087;-70
2023/07/22 02:45:57;;;;;;;2.08;1.10;;;;;;;;;;5063598;28;20052;-70
2023/07/22 02:48:24;;;;;;;7.00;1.10;;;;;;;;;;5063712;28;20063;-70
2023/07/22 02:50:53;;;;;;;4.95;1.33;;;;;;;;;;5068010;28;20048;-70
2023/07/22 02:53:20;;;;;;;2.50;1.10;;;;;;;;;;5065949;28;20045;-70
2023/07/22 02:55:48;;;;;;;2.17;1.10;;;;;;;;;;5063527;28;20045;-70
2023/07/22 02:58:15;;;;;;;2.58;1.08;;;;;;;;;;5064853;28;20052;-71
2023/07/22 03:00:43;;;;;;;3.88;1.15;;;;;;;;;;5066697;28;20056;-70
2023/07/22 03:03:10;;;;;;;2.13;1.10;;;;;;;;;;5065551;28;20056;-70
2023/07/22 03:05:38;;;;;;;2.42;0.95;;;;;;;;;;5066156;28;20048;-71
2023/07/22 03:08:07;;;;;;;3.47;1.13;;;;;;;;;;5066777;28;20394;-70
2023/07/22 03:10:34;;;;;;;1.83;1.20;;;;;;;;;;5068018;28;20678;-71
2023/07/22 03:13:03;;;;;;;2.75;1.23;;;;;;;;;;5067319;28;20055;-71
2023/07/22 03:15:31;;;;;;;1.73;1.00;;;;;;;;;;5064049;28;20149;-70
2023/07/22 03:17:59;;;;;;;2.67;1.27;;;;;;;;;;5064648;28;20074;-70
2023/07/22 03:20:26;;;;;;;3.17;1.08;;;;;;;;;;5062497;28;20040;-71
2023/07/22 03:22:54;;;;;;;2.42;1.38;;;;;;;;;;5066313;28;20052;-70
2023/07/22 03:25:23;;;;;;;2.53;1.38;;;;;;;;;;5067059;28;20497;-71
2023/07/22 03:27:50;;;;;;;1.95;1.00;;;;;;;;;;5066969;28;20044;-71
2023/07/22 03:30:19;;;;;;;4.38;1.55;;;;;;;;;;5066299;28;20597;-71
2023/07/22 03:32:47;;;;;;;3.40;1.27;;;;;;;;;;5064578;28;20049;-71
2023/07/22 03:35:14;;;;;;;4.57;1.58;;;;;;;;;;5044409;28;20053;-71
2023/07/22 03:37:42;;;;;;;3.88;1.50;;;;;;;;;;5066564;28;20048;-72
2023/07/22 03:40:19;;;;;;;2.20;1.20;;;;;;;;;;5062923;28;20094;-71
2023/07/22 03:42:47;;;;;;;4.57;1.63;;;;;;;;;;5062458;28;20055;-71
2023/07/22 03:45:15;;;;;;;5.60;1.55;;;;;;;;;;5061072;28;20075;-71
2023/07/22 03:47:42;;;;;;;3.47;1.30;;;;;;;;;;5066177;28;20390;-71
2023/07/22 03:50:10;;;;;;;6.65;1.83;;;;;;;;;;5068708;28;20060;-71
2023/07/22 03:52:37;;;;;;;2.22;1.23;;;;;;;;;;5071161;28;20536;-71
2023/07/22 03:55:05;;;;;;;3.95;1.73;;;;;;;;;;5054185;28;20060;-71
2023/07/22 03:57:32;;;;;;;3.72;1.83;;;;;;;;;;5069038;28;20098;-71
2023/07/22 04:00:01;;;;;;;3.38;1.70;;;;;;;;;;5068644;28;20045;-71
2023/07/22 04:02:28;;;;;;;3.92;1.52;;;;;;;;;;5057925;28;20134;-71
2023/07/22 04:04:56;;;;;;;6.43;1.83;;;;;;;;;;5069473;28;20169;-71
2023/07/22 04:07:24;;;;;;;4.15;1.80;;;;;;;;;;5069506;28;20079;-71
2023/07/22 04:09:51;;;;;;;4.03;1.80;;;;;;;;;;5070336;28;20089;-71
2023/07/22 04:12:18;;;;;;;6.47;2.22;;;;;;;;;;5068542;28;20053;-71
2023/07/22 04:14:45;;;;;;;4.18;1.90;;;;;;;;;;5056315;28;20490;-71
2023/07/22 04:17:15;;;;;;;8.38;2.42;;;;;;;;;;5050537;28;20506;-71
2023/07/22 04:19:43;;;;;;;5.90;2.30;;;;;;;;;;5070320;28;20158;-71
2023/07/22 04:22:10;;;;;;;8.38;2.60;;;;;;;;;;5053946;28;20526;-71
2023/07/22 04:24:37;;;;;;;5.07;2.25;;;;;;;;;;5073832;28;20043;-71
2023/07/22 04:27:05;;;;;;;5.32;2.92;;;;;;;;;;5066396;28;20075;-71
2023/07/22 04:29:32;;;;;;;7.32;3.10;;;;;;;;;;5070149;28;20438;-71
2023/07/22 04:31:59;;;;;;;5.68;2.53;;;;;;;;;;5066459;28;20051;-71
2023/07/22 04:34:31;;;;;;;7.80;3.35;;;;;;;;;;5069502;28;20491;-71
2023/07/22 04:36:58;;;;;;;7.15;3.00;;;;;;;;;;5068828;28;20056;-71
2023/07/22 04:39:25;;;;;;;7.93;2.80;;;;;;;;;;5047575;28;20509;-72
2023/07/22 04:41:53;;;;;;;7.85;3.05;;;;;;;;;;5068363;28;20053;-72
2023/07/22 04:44:21;;;;;;;8.20;3.42;;;;;;;;;;5067686;28;20049;-72
2023/07/22 04:46:48;;;;;;;10.40;3.70;;;;;;;;;;5068640;28;20047;-71
2023/07/22 04:49:17;;;;;;;9.95;3.53;;;;;;;;;;5070469;28;20059;-72
2023/07/22 04:51:47;;;;;;;6.90;3.78;;;;;;;;;;5068926;28;20074;-71
2023/07/22 04:54:14;;;;;;;7.72;3.90;;;;;;;;;;5069376;28;20123;-72
2023/07/22 04:56:42;;;;;;;7.93;3.80;;;;;;;;;;5054978;28;20052;-71
2023/07/22 04:59:09;;;;;;;8.23;4.22;;;;;;;;;;5069815;28;20129;-72
2023/07/22 05:01:37;;;;;;;6.53;3.30;;;;;;;;;;5066884;28;20049;-72
2023/07/22 05:04:04;;;;;;;8.38;4.07;;;;;;;;;;5068687;28;20525;-71
2023/07/22 05:06:32;;;;;;;7.90;3.90;;;;;;;;;;5069207;28;20053;-72
2023/07/22 05:09:00;;;;;;;8.68;3.30;;;;;;;;;;5063078;28;20049;-73
2023/07/22 05:11:27;;;;;;;7.90;3.95;;;;;;;;;;5057291;28;20051;-73
2023/07/22 05:13:55;;;;;;;8.13;3.85;;;;;;;;;;5066752;28;20433;-72
2023/07/22 05:16:22;;;;;;;10.45;4.15;;;;;;;;;;5052132;28;20048;-72
2023/07/22 05:18:49;;;;;;;10.23;4.20;;;;;;;;;;5063084;28;20044;-72
2023/07/22 05:21:18;;;;;;;11.23;4.55;;;;;;;;;;5052919;28;20406;-73
2023/07/22 05:23:45;;;;;;;8.68;3.75;;;;;;;;;;5051845;28;20118;-72
2023/07/22 05:26:14;;;;;;;7.28;3.33;;;;;;;;;;5054909;28;20690;-72
2023/07/22 05:28:41;;;;;;;8.63;4.07;;;;;;;;;;5066618;28;20487;-72
2023/07/22 05:31:08;;;;;;;8.93;3.40;;;;;;;;;;5069823;28;20045;-72
2023/07/22 05:33:37;;;;;;;8.02;3.90;;;;;;;;;;5067955;28;20401;-72
2023/07/22 05:36:04;;;;;;;9.88;4.38;;;;;;;;;;5069157;28;20049;-72
2023/07/22 05:38:32;;;;;;;12.30;4.60;;;;;;;;;;5052442;28;20048;-72
2023/07/22 05:40:59;;;;;;;8.48;4.28;;;;;;;;;;5053803;28;20722;-72
2023/07/22 05:43:28;;;;;;;10.32;4.05;;;;;;;;;;5068320;28;20061;-72
2023/07/22 05:45:55;;;;;;;9.82;4.75;;;;;;;;;;5068241;28;20056;-72
2023/07/22 05:48:22;;;;;;;11.48;4.40;;;;;;;;;;5058862;28;20056;-73
2023/07/22 05:50:49;;;;;;;8.32;4.28;;;;;;;;;;5068049;28;20052;-72
2023/07/22 05:53:17;;;;;;;10.57;4.40;;;;;;;;;;5064444;28;20061;-72
2023/07/22 05:55:44;;;;;;;14.15;4.63;;;;;;;;;;5066685;28;20060;-73
2023/07/22 05:58:17;;;;;;;10.20;4.70;;;;;;;;;;5067429;28;20049;-72
2023/07/22 06:00:46;;;;;;;10.48;4.63;;;;;;;;;;5067267;28;20438;-72
2023/07/22 06:03:13;;;;;;;9.10;4.10;;;;;;;;;;5067809;28;20052;-72
2023/07/22 06:05:41;;;;;;;10.13;4.47;;;;;;;;;;5066909;28;20495;-71
2023/07/22 06:08:08;;;;;;;9.48;4.22;;;;;;;;;;5068023;28;20495;-72
2023/07/22 06:10:37;;;;;;;8.88;4.57;;;;;;;;;;5050467;28;20059;-72
2023/07/22 06:13:05;;;;;;;12.07;4.80;;;;;;;;;;5065451;28;20527;-72
2023/07/22 06:15:32;;;;;;;12.20;4.80;;;;;;;;;;5065058;28;20538;-72
2023/07/22 06:18:00;;;;;;;11.57;4.88;;;;;;;;;;5066663;28;20063;-72
2023/07/22 06:20:28;;;;;;;11.10;5.10;;;;;;;;;;5066183;28;20056;-72
2023/07/22 06:22:55;;;;;;;11.10;4.68;;;;;;;;;;5068300;28;20075;-72
2023/07/22 06:25:22;;;;;;;10.15;4.35;;;;;;;;;;5064845;28;20118;-71
2023/07/22 06:27:50;;;;;;;11.68;4.50;;;;;;;;;;5067323;28;20047;-72
2023/07/22 06:30:17;;;;;;;9.85;4.40;;;;;;;;;;5061346;28;20052;-72
2023/07/22 06:32:44;;;;;;;8.10;4.28;;;;;;;;;;5048522;28;20502;-71
2023/07/22 06:35:13;;;;;;;9.48;4.68;;;;;;;;;;5062239;28;20056;-71
2023/07/22 06:37:40;;;;;;;13.40;5.13;;;;;;;;;;5061495;28;20044;-71
2023/07/22 06:40:08;;;;;;;12.63;5.00;;;;;;;;;;5052974;28;20044;-71
2023/07/22 06:42:35;;;;;;;12.43;5.32;;;;;;;;;;5063019;28;20053;-70
2023/07/22 06:45:03;;;;;;;12.88;5.45;;;;;;;;;;5064034;28;20040;-71
2023/07/22 06:47:30;;;;;;;12.77;5.45;;;;;;;;;;5052943;28;20354;-71
2023/07/22 06:49:57;;;;;;;10.82;5.32;;;;;;;;;;5066508;28;20044;-71
2023/07/22 06:52:26;;;;;;;11.32;5.18;;;;;;;;;;5064833;28;20048;-70
2023/07/22 06:54:53;;;;;;;11.45;5.18;;;;;;;;;;5050332;28;20057;-69
2023/07/22 06:57:21;;;;;;;14.02;6.03;;;;;;;;;;5064015;28;20052;-70
2023/07/22 06:59:50;;;;;;;13.77;5.28;;;;;;;;;;5066397;28;20607;-70
2023/07/22 07:02:18;;;;;;;11.95;5.18;;;;;;;;;;5067238;28;20055;-71
2023/07/22 07:04:45;;;;;;;12.40;5.47;;;;;;;;;;5049754;28;20169;-70
2023/07/22 07:07:13;;;;;;;12.95;5.55;;;;;;;;;;5065228;28;20072;-70
2023/07/22 07:09:42;;;;;;;11.32;5.43;;;;;;;;;;5048021;28;20055;-69
2023/07/22 07:12:09;;;;;;;11.68;4.90;;;;;;;;;;5062811;28;20063;-70
2023/07/22 07:14:37;;;;;;;10.23;5.10;;;;;;;;;;5065367;28;20044;-69
2023/07/22 07:17:04;;;;;;;9.70;5.20;;;;;;;;;;5061567;28;20064;-70
2023/07/22 07:19:32;;;;;;;12.73;5.35;;;;;;;;;;5058229;28;20056;-70
2023/07/22 07:21:59;;;;;;;9.27;5.00;;;;;;;;;;5061182;28;20063;-68
2023/07/22 07:24:27;;;;;;;11.88;4.95;;;;;;;;;;5066553;28;20079;-70
2023/07/22 07:26:55;;;;;;;9.52;4.03;;;;;;;;;;5063463;28;20044;-70
2023/07/22 07:29:22;;;;;;;10.77;4.55;;;;;;;;;;5065813;28;20049;-72
2023/07/22 07:31:50;;;;;;;9.82;4.25;;;;;;;;;;5044228;28;20071;-77
2023/07/22 07:34:17;;;;;;;9.27;4.78;;;;;;;;;;5064648;28;20087;-78
2023/07/22 07:36:44;;;;;;;10.13;4.93;;;;;;;;;;5051415;28;20075;-79
2023/07/22 07:39:12;;;;;;;9.07;4.80;;;;;;;;;;5051133;28;20044;-74
2023/07/22 07:41:39;;;;;;;9.60;4.78;;;;;;;;;;5064580;28;20055;-72
2023/07/22 07:44:08;;;;;;;9.65;4.47;;;;;;;;;;5048336;28;20064;-78
2023/07/22 07:46:35;;;;;;;11.88;4.55;;;;;;;;;;5064798;28;20044;-80
2023/07/22 07:49:03;;;;;;;7.72;4.32;;;;;;;;;;5065714;28;20055;-76
2023/07/22 07:51:31;;;;;;;9.95;4.55;;;;;;;;;;5055111;28;20475;-78
2023/07/22 07:53:59;;;;;;;10.07;4.38;;;;;;;;;;5064903;28;20055;-81
2023/07/22 07:56:26;;;;;;;9.63;4.70;;;;;;;;;;5050361;28;20481;-80
2023/07/22 07:58:54;;;;;;;9.88;5.05;;;;;;;;;;5048824;28;20055;-80
2023/07/22 08:01:23;;;;;;;9.40;4.47;;;;;;;;;;5051953;28;20048;-73
2023/07/22 08:03:50;;;;;;;8.48;4.57;;;;;;;;;;5060861;28;20052;-75
2023/07/22 08:06:18;;;;;;;8.48;4.43;;;;;;;;;;5061623;28;20072;-72
2023/07/22 08:08:45;;;;;;;9.50;4.03;;;;;;;;;;5046168;28;20479;-74
2023/07/22 08:11:14;;;;;;;7.47;4.03;;;;;;;;;;5035140;28;20396;-74
2023/07/22 08:13:42;;;;;;;7.43;4.05;;;;;;;;;;5044442;28;20053;-75
2023/07/22 08:16:10;;;;;;;7.28;3.88;;;;;;;;;;5055635;28;20226;-77
2023/07/22 08:18:39;;;;;;;8.05;3.80;;;;;;;;;;5054033;28;20099;-76
2023/07/22 08:21:07;;;;;;;6.85;3.45;;;;;;;;;;5051417;28;20056;-75
2023/07/22 08:23:35;;;;;;;7.03;3.90;;;;;;;;;;5052397;28;20048;-75
2023/07/22 08:26:03;;;;;;;6.95;3.70;;;;;;;;;;5052451;28;20518;-75
2023/07/22 08:28:31;;;;;;;7.15;3.80;;;;;;;;;;5055090;28;20419;-76
2023/07/22 08:31:00;;;;;;;6.75;3.90;;;;;;;;;;5046305;28;20052;-76
2023/07/22 08:33:27;;;;;;;5.88;3.15;;;;;;;;;;5047806;28;20094;-76
2023/07/22 08:35:56;;;;;;;7.18;3.05;;;;;;;;;;5053199;28;20057;-78
2023/07/22 08:38:23;;;;;;;6.80;2.85;;;;;;;;;;5056807;28;20507;-77
2023/07/22 08:40:51;;;;;;;4.68;2.63;;;;;;;;;;5066307;28;20398;-79
2023/07/22 08:43:21;;;;;;;3.40;2.17;;;;;;;;;;5051761;28;20045;-77
2023/07/22 08:45:49;;;;;;;3.42;1.70;;;;;;;;;;5046703;28;20059;-76
2023/07/22 08:48:18;;;;;;;2.03;1.38;;;;;;;;;;5071191;28;20503;-74
2023/07/22 08:50:46;;;;;;;2.00;1.30;;;;;;;;;;5069875;28;20101;-69
2023/07/22 08:53:15;;;;;;;3.40;1.48;;;;;;;;;;5069573;28;20164;-70
2023/07/22 08:55:43;;;;;;;4.10;2.08;;;;;;;;;;5056043;28;20053;-67
2023/07/22 08:58:10;;;;;;;2.10;1.40;;;;;;;;;;5065913;28;20045;-67
2023/07/22 09:00:38;;;;;;;3.33;1.50;;;;;;;;;;5068037;28;20505;-67
2023/07/22 09:03:05;;;;;;;2.38;1.40;;;;;;;;;;5067937;28;20131;-66
2023/07/22 09:05:33;;;;;;;4.07;1.80;;;;;;;;;;5069258;28;20053;-66
2023/07/22 09:08:01;;;;;;;2.95;1.92;;;;;;;;;;5064275;28;20037;-66
2023/07/22 09:10:30;;;;;;;6.25;2.08;;;;;;;;;;5069266;28;20051;-66
2023/07/22 09:12:57;;;;;;;2.95;1.67;;;;;;;;;;5067355;28;20048;-66
2023/07/22 09:15:25;;;;;;;3.42;1.60;;;;;;;;;;5064423;28;20056;-66
2023/07/22 09:17:53;;;;;;;3.63;1.77;;;;;;;;;;5065709;28;20040;-67
2023/07/22 09:20:21;;;;;;;3.83;1.77;;;;;;;;;;5069466;28;20044;-67
2023/07/22 09:22:49;;;;;;;3.60;1.60;;;;;;;;;;5066903;28;20044;-66
2023/07/22 09:25:17;;;;;;;4.88;1.90;;;;;;;;;;5064655;28;20132;-66
2023/07/22 09:27:47;;;;;;;3.28;1.65;;;;;;;;;;5062747;28;20474;-66
2023/07/22 09:30:24;;;;;;;4.10;2.15;;;;;;;;;;5063854;28;20048;-65
2023/07/22 09:32:52;;;;;;;4.30;2.00;;;;;;;;;;5068319;28;20440;-66
2023/07/22 09:35:19;;;;;;;3.08;1.75;;;;;;;;;;5067335;28;20564;-66
2023/07/22 09:37:47;;;;;;;6.57;2.40;;;;;;;;;;5069732;28;20586;-66
2023/07/22 09:40:18;;;;;;;4.40;2.45;;;;;;;;;;5066564;28;20044;-66
2023/07/22 09:42:48;;;;;;;3.33;2.03;;;;;;;;;;5048604;28;20410;-66
2023/07/22 09:45:15;;;;;;;4.97;2.30;;;;;;;;;;5069184;28;20110;-66
2023/07/22 09:47:43;;;;;;;4.18;2.17;;;;;;;;;;5068474;28;20457;-66
2023/07/22 09:50:13;;;;;;;3.75;2.20;;;;;;;;;;5068976;28;20593;-65
2023/07/22 09:52:44;;;;;;;4.18;2.10;;;;;;;;;;5069463;28;20048;-65
2023/07/22 09:55:12;;;;;;;8.93;2.22;;;;;;;;;;5069017;28;20045;-66
2023/07/22 09:57:40;;;;;;;4.60;2.42;;;;;;;;;;5065728;28;20053;-66
2023/07/22 10:00:09;;;;;;;5.68;2.45;;;;;;;;;;5069260;28;20045;-66
2023/07/22 10:02:37;;;;;;;6.85;2.35;;;;;;;;;;5067808;28;20064;-66
2023/07/22 10:05:05;;;;;;;4.03;2.67;;;;;;;;;;5065951;28;20053;-67
2023/07/22 10:07:34;;;;;;;3.53;2.30;;;;;;;;;;5067943;28;20617;-66
2023/07/22 10:10:02;;;;;;;3.97;2.47;;;;;;;;;;5056893;28;20101;-66
2023/07/22 10:12:30;;;;;;;8.23;2.70;;;;;;;;;;5064900;28;20052;-66
2023/07/22 10:14:57;;;;;;;5.32;2.58;;;;;;;;;;5063548;28;20055;-66
2023/07/22 10:17:26;;;;;;;4.22;2.50;;;;;;;;;;5064414;28;20049;-66
2023/07/22 10:19:55;;;;;;;4.60;2.35;;;;;;;;;;5067077;28;20060;-66
2023/07/22 10:22:22;;;;;;;4.68;2.67;;;;;;;;;;5064198;28;20530;-66
2023/07/22 10:24:50;;;;;;;3.60;2.38;;;;;;;;;;5060857;28;20127;-67
2023/07/22 10:27:18;;;;;;;6.70;2.35;;;;;;;;;;5056683;28;20048;-66
2023/07/22 10:29:47;;;;;;;5.32;2.35;;;;;;;;;;5062078;28;20140;-66
2023/07/22 10:32:15;;;;;;;5.72;2.80;;;;;;;;;;5066848;28;20129;-66
2023/07/22 10:34:44;;;;;;;4.50;2.42;;;;;;;;;;5067466;28;20445;-67
2023/07/22 10:37:11;;;;;;;3.63;2.15;;;;;;;;;;5056828;28;20463;-67
2023/07/22 10:39:39;;;;;;;6.22;2.80;;;;;;;;;;5065193;28;20049;-66
2023/07/22 10:42:06;;;;;;;7.25;3.03;;;;;;;;;;5067370;28;20052;-66
2023/07/22 10:44:35;;;;;;;25.33;3.05;;;;;;;;;;5068867;28;20044;-66
2023/07/22 10:47:03;;;;;;;6.68;3.10;;;;;;;;;;5052926;28;20049;-66
2023/07/22 10:49:44;;;;;;;6.28;3.10;;;;;;;;;;5064274;28;20485;-66
2023/07/22 10:52:14;;;;;;;5.90;3.08;;;;;;;;;;5053657;28;20048;-67
2023/07/22 10:54:41;;;;;;;6.35;3.25;;;;;;;;;;5067248;28;20049;-67
2023/07/22 10:57:24;;;;;;;5.45;2.80;;;;;;;;;;5068310;28;20052;-66
2023/07/22 10:59:52;;;;;;;5.03;3.13;;;;;;;;;;5056789;28;20052;-66
2023/07/22 11:02:25;;;;;;;5.53;3.10;;;;;;;;;;5039967;28;20605;-67
2023/07/22 11:04:52;;;;;;;5.65;3.15;;;;;;;;;;5064787;28;20125;-66
2023/07/22 11:07:32;;;;;;;4.68;2.85;;;;;;;;;;5063848;28;20515;-68
2023/07/22 11:09:59;;;;;;;3.92;2.72;;;;;;;;;;5065027;28;20384;-68
2023/07/22 11:12:26;;;;;;;4.30;2.83;;;;;;;;;;5063501;28;20060;-68
2023/07/22 11:14:54;;;;;;;4.35;2.80;;;;;;;;;;5066724;28;20045;-68
2023/07/22 11:17:29;;;;;;;4.15;2.90;;;;;;;;;;5064713;28;20060;-69
2023/07/22 11:19:57;;;;;;;5.15;2.92;;;;;;;;;;5065680;28;20048;-68
2023/07/22 11:22:24;;;;;;;5.47;3.05;;;;;;;;;;5051060;28;20549;-68
2023/07/22 11:24:53;;;;;;;5.60;3.30;;;;;;;;;;5064308;28;20056;-68
2023/07/22 11:27:20;;;;;;;6.13;3.63;;;;;;;;;;5068502;28;20048;-69
2023/07/22 11:29:49;;;;;;;7.43;3.53;;;;;;;;;;5062562;28;20052;-69
2023/07/22 11:32:17;;;;;;;6.78;3.80;;;;;;;;;;5048915;28;20076;-68
2023/07/22 11:34:45;;;;;;;5.25;4.00;;;;;;;;;;5063657;28;20049;-66
2023/07/22 11:37:13;;;;;;;7.35;3.80;;;;;;;;;;5066715;28;20133;-70
2023/07/22 11:39:42;;;;;;;7.45;4.15;;;;;;;;;;5060000;28;20049;-68
2023/07/22 11:42:11;;;;;;;8.48;4.22;;;;;;;;;;5064807;28;20051;-65
2023/07/22 11:44:38;;;;;;;8.73;3.85;;;;;;;;;;5058578;28;20511;-68
2023/07/22 11:47:07;;;;;;;7.95;4.00;;;;;;;;;;5060002;28;20036;-69
2023/07/22 11:49:35;;;;;;;9.25;4.70;;;;;;;;;;5057111;28;20140;-70
2023/07/22 11:52:07;;;;;;;6.78;4.35;;;;;;;;;;5060980;28;20395;-70
2023/07/22 11:54:35;;;;;;;6.20;3.83;;;;;;;;;;5066201;28;20049;-69
2023/07/22 11:57:13;;;;;;;8.43;4.30;;;;;;;;;;5063115;28;20078;-69
2023/07/22 11:59:41;;;;;;;5.25;3.97;;;;;;;;;;5048274;28;20053;-69
2023/07/22 12:02:14;;;;;;;7.10;4.53;;;;;;;;;;5062275;28;20373;-69
2023/07/22 12:04:41;;;;;;;6.88;3.58;;;;;;;;;;5059680;28;20088;-70
2023/07/22 12:07:22;;;;;;;7.05;3.35;;;;;;;;;;5048245;28;20052;-70
2023/07/22 12:09:50;;;;;;;5.18;3.20;;;;;;;;;;5063561;28;20071;-68
2023/07/22 12:12:19;;;;;;;6.18;4.07;;;;;;;;;;5066802;28;20060;-68
2023/07/22 12:14:46;;;;;;;6.65;3.30;;;;;;;;;;5050178;28;20058;-68
2023/07/22 12:17:13;;;;;;;6.45;3.22;;;;;;;;;;5064489;28;20045;-69
2023/07/22 12:19:52;;;;;;;7.88;3.65;;;;;;;;;;5052410;28;20053;-68
2023/07/22 12:22:19;;;;;;;4.90;3.05;;;;;;;;;;5062467;28;20058;-71
2023/07/22 12:24:48;;;;;;;5.00;2.92;;;;;;;;;;5051039;28;20055;-69
2023/07/22 12:27:15;;;;;;;4.78;2.92;;;;;;;;;;5059486;28;20396;-68
2023/07/22 12:29:44;;;;;;;4.20;2.72;;;;;;;;;;5065957;28;20148;-67
2023/07/22 12:32:11;;;;;;;6.35;3.50;;;;;;;;;;5055695;28;20144;-65
2023/07/22 12:34:38;;;;;;;6.40;3.42;;;;;;;;;;5053668;28;20067;-67
2023/07/22 12:37:06;;;;;;;10.90;2.35;;;;;;;;;;5068497;28;20059;-66
2023/07/22 12:39:34;;;;;;;2.20;1.40;;;;;;;;;;5059531;28;20052;-67
2023/07/22 12:42:01;;;;;;;3.35;1.50;;;;;;;;;;5070459;28;20475;-67
2023/07/22 12:44:28;;;;;;;3.75;1.70;;;;;;;;;;5062765;28;20080;-67
2023/07/22 12:46:57;;;;;;;4.60;2.00;;;;;;;;;;5068506;28;20402;-68
2023/07/22 12:49:25;;;;;;;4.07;1.50;;;;;;;;;;5065160;28;20040;-68
2023/07/22 12:51:52;;;;;;;3.83;1.65;;;;;;;;;;5064430;28;20052;-67
2023/07/22 12:54:20;;;;;;;3.88;1.45;;;;;;;;;;5062651;28;20501;-68
2023/07/22 12:56:47;;;;;;;4.40;1.80;;;;;;;;;;5062041;28;20048;-67
2023/07/22 12:59:14;;;;;;;5.15;1.60;;;;;;;;;;5065402;28;20048;-68
2023/07/22 13:01:42;;;;;;;2.40;1.50;;;;;;;;;;5064839;28;20044;-68
2023/07/22 13:04:10;;;;;;;4.28;1.73;;;;;;;;;;5063374;28;20060;-70
2023/07/22 13:06:38;;;;;;;4.30;1.77;;;;;;;;;;5062500;28;20056;-70
2023/07/22 13:09:06;;;;;;;4.88;1.90;;;;;;;;;;5048288;28;20048;-71
2023/07/22 13:11:33;;;;;;;2.50;1.70;;;;;;;;;;5046171;28;20137;-70
2023/07/22 13:14:01;;;;;;;3.80;1.85;;;;;;;;;;5038510;28;20484;-72
2023/07/22 13:16:28;;;;;;;1.83;1.10;;;;;;;;;;5049087;28;20491;-72
2023/07/22 13:18:55;;;;;;;5.38;1.58;;;;;;;;;;5062196;28;20048;-72
2023/07/22 13:21:24;;;;;;;2.40;1.60;;;;;;;;;;5063734;28;20044;-71
2023/07/22 13:23:51;;;;;;;3.47;1.50;;;;;;;;;;5066003;28;20053;-73
2023/07/22 13:26:18;;;;;;;6.13;1.80;;;;;;;;;;5064020;28;20061;-73
2023/07/22 13:28:46;;;;;;;6.25;1.85;;;;;;;;;;5067915;28;20045;-72
2023/07/22 13:31:13;;;;;;;3.42;1.70;;;;;;;;;;5063092;28;21382;-72
2023/07/22 13:33:40;;;;;;;7.32;1.67;;;;;;;;;;5051365;28;20048;-73
2023/07/22 13:36:09;;;;;;;3.40;1.50;;;;;;;;;;5068331;28;20395;-73
2023/07/22 13:38:37;;;;;;;6.35;2.00;;;;;;;;;;5054547;28;20044;-72
2023/07/22 13:41:05;;;;;;;3.35;2.10;;;;;;;;;;5069392;28;20395;-74
2023/07/22 13:43:32;;;;;;;6.45;2.00;;;;;;;;;;5065926;28;20072;-72
2023/07/22 13:45:59;;;;;;;4.15;2.38;;;;;;;;;;5064314;28;20511;-73
2023/07/22 13:48:27;;;;;;;4.40;1.80;;;;;;;;;;5067182;28;20051;-73
2023/07/22 13:50:55;;;;;;;6.93;2.00;;;;;;;;;;5068827;28;20045;-73
2023/07/22 13:53:22;;;;;;;5.32;1.70;;;;;;;;;;5066176;28;20155;-73
2023/07/22 13:55:50;;;;;;;7.70;2.03;;;;;;;;;;5067088;28;20052;-72
2023/07/22 13:58:18;;;;;;;4.93;2.10;;;;;;;;;;5066413;28;20056;-73
2023/07/22 14:00:45;;;;;;;5.95;1.70;;;;;;;;;;5063149;28;20048;-72
2023/07/22 14:03:12;;;;;;;5.25;2.70;;;;;;;;;;5060963;28;20769;-72
2023/07/22 14:05:39;;;;;;;5.65;2.28;;;;;;;;;;5059409;28;20057;-73
2023/07/22 14:08:07;;;;;;;5.45;2.40;;;;;;;;;;5067452;28;20044;-72
2023/07/22 14:10:34;;;;;;;5.13;2.45;;;;;;;;;;5061617;28;20467;-76
2023/07/22 14:13:04;;;;;;;7.00;2.20;;;;;;;;;;5067728;28;20391;-71
2023/07/22 14:15:41;;;;;;;8.73;2.55;;;;;;;;;;5069983;28;20438;-70
2023/07/22 14:18:09;;;;;;;6.63;2.88;;;;;;;;;;5066921;28;20060;-70
2023/07/22 14:20:36;;;;;;;4.28;2.40;;;;;;;;;;5065429;28;20160;-70
2023/07/22 14:23:04;;;;;;;9.88;3.25;;;;;;;;;;5048481;28;20052;-71
2023/07/22 14:25:31;;;;;;;4.43;2.40;;;;;;;;;;5069609;28;20549;-69
2023/07/22 14:27:59;;;;;;;10.07;2.83;;;;;;;;;;5066369;28;20048;-71
2023/07/22 14:30:28;;;;;;;9.25;3.10;;;;;;;;;;5067603;28;20055;-68
2023/07/22 14:32:56;;;;;;;7.00;3.22;;;;;;;;;;5068202;28;20071;-68
2023/07/22 14:35:23;;;;;;;8.20;3.17;;;;;;;;;;5067683;28;20510;-72
2023/07/22 14:37:51;;;;;;;5.18;2.70;;;;;;;;;;5062854;28;20051;-69
2023/07/22 14:40:18;;;;;;;5.85;2.90;;;;;;;;;;5062879;28;20043;-72
2023/07/22 14:42:46;;;;;;;7.70;2.72;;;;;;;;;;5066360;28;20134;-69
2023/07/22 14:45:24;;;;;;;9.55;2.55;;;;;;;;;;5067836;28;20079;-71
2023/07/22 14:47:53;;;;;;;4.45;2.28;;;;;;;;;;5061135;28;20149;-69